sensor_id;sensor_type;location;lat;lon;timestamp;pressure;altitude;pressure_sealevel;temperature;humidity
44140;BME280;29803;51.048;4.686;2023-06-22T00:01:44;101829.19;;;19.94;100.00
44140;BME280;29803;51.048;4.686;2023-06-22T00:04:15;101832.50;;;19.82;100.00
44140;BME280;29803;51.048;4.686;2023-06-22T00:06:45;101835.56;;;19.66;100.00
44140;BME280;29803;51.048;4.686;2023-06-22T00:09:16;101835.03;;;19.49;100.00
44140;BME280;29803;51.048;4.686;2023-06-22T00:11:46;101831.19;;;19.37;100.00
44140;BME280;29803;51.048;4.686;2023-06-22T00:14:16;101828.22;;;19.32;100.00
44140;BME280;29803;51.048;4.686;2023-06-22T00:16:47;101822.38;;;19.28;100.00
44140;BME280;29803;51.048;4.686;2023-06-22T00:19:18;101825.94;;;19.29;100.00
44140;BME280;29803;51.048;4.686;2023-06-22T00:21:50;101824.69;;;19.31;100.00
44140;BME280;29803;51.048;4.686;2023-06-22T00:24:24;101830.31;;;19.30;100.00
44140;BME280;29803;51.048;4.686;2023-06-22T00:26:54;101829.06;;;19.32;100.00
44140;BME280;29803;51.048;4.686;2023-06-22T00:29:25;101829.06;;;19.32;100.00
44140;BME280;29803;51.048;4.686;2023-06-22T00:31:55;101829.94;;;19.33;100.00
44140;BME280;29803;51.048;4.686;2023-06-22T00:34:25;101811.72;;;19.33;100.00
44140;BME280;29803;51.048;4.686;2023-06-22T00:36:56;101807.72;;;19.29;100.00
44140;BME280;29803;51.048;4.686;2023-06-22T00:39:26;101802.50;;;19.28;100.00
44140;BME280;29803;51.048;4.686;2023-06-22T00:41:57;101805.16;;;19.21;100.00
44140;BME280;29803;51.048;4.686;2023-06-22T00:44:27;101812.03;;;19.17;100.00
44140;BME280;29803;51.048;4.686;2023-06-22T00:46:58;101810.78;;;19.13;100.00
44140;BME280;29803;51.048;4.686;2023-06-22T00:49:30;101803.63;;;19.12;100.00
44140;BME280;29803;51.048;4.686;2023-06-22T00:52:01;101818.69;;;19.08;100.00
44140;BME280;29803;51.048;4.686;2023-06-22T00:54:32;101811.16;;;19.10;100.00
44140;BME280;29803;51.048;4.686;2023-06-22T00:57:02;101805.81;;;19.23;100.00
44140;BME280;29803;51.048;4.686;2023-06-22T00:59:33;101808.56;;;19.30;100.00
44140;BME280;29803;51.048;4.686;2023-06-22T01:02:04;101811.72;;;19.33;100.00
44140;BME280;29803;51.048;4.686;2023-06-22T01:04:36;101816.75;;;19.36;100.00
44140;BME280;29803;51.048;4.686;2023-06-22T01:07:23;101813.41;;;19.34;100.00
44140;BME280;29803;51.048;4.686;2023-06-22T01:10:16;101808.34;;;19.31;100.00
44140;BME280;29803;51.048;4.686;2023-06-22T01:12:52;101808.16;;;19.33;100.00
44140;BME280;29803;51.048;4.686;2023-06-22T01:15:42;101809.44;;;19.37;100.00
44140;BME280;29803;51.048;4.686;2023-06-22T01:18:17;101810.25;;;19.37;100.00
44140;BME280;29803;51.048;4.686;2023-06-22T01:20:50;101807.16;;;19.40;100.00
44140;BME280;29803;51.048;4.686;2023-06-22T01:24:05;101810.50;;;19.42;100.00
44140;BME280;29803;51.048;4.686;2023-06-22T01:26:48;101816.00;;;19.49;100.00
44140;BME280;29803;51.048;4.686;2023-06-22T01:29:25;101819.56;;;19.50;100.00
44140;BME280;29803;51.048;4.686;2023-06-22T01:31:57;101814.50;;;19.47;100.00
44140;BME280;29803;51.048;4.686;2023-06-22T01:34:31;101806.34;;;19.47;100.00
44140;BME280;29803;51.048;4.686;2023-06-22T01:37:02;101810.34;;;19.51;100.00
44140;BME280;29803;51.048;4.686;2023-06-22T01:39:34;101800.06;;;19.46;100.00
44140;BME280;29803;51.048;4.686;2023-06-22T01:42:05;101800.25;;;19.38;100.00
44140;BME280;29803;51.048;4.686;2023-06-22T01:44:36;101792.25;;;19.30;100.00
44140;BME280;29803;51.048;4.686;2023-06-22T01:47:08;101803.31;;;19.28;100.00
44140;BME280;29803;51.048;4.686;2023-06-22T01:49:40;101787.41;;;19.25;100.00
44140;BME280;29803;51.048;4.686;2023-06-22T01:52:12;101784.47;;;19.27;100.00
44140;BME280;29803;51.048;4.686;2023-06-22T01:54:47;101781.09;;;19.18;100.00
44140;BME280;29803;51.048;4.686;2023-06-22T01:57:18;101779.34;;;19.10;100.00
44140;BME280;29803;51.048;4.686;2023-06-22T02:00:06;101773.28;;;19.08;100.00
44140;BME280;29803;51.048;4.686;2023-06-22T02:02:43;101780.38;;;19.03;100.00
44140;BME280;29803;51.048;4.686;2023-06-22T02:05:17;101785.81;;;19.03;100.00
44140;BME280;29803;51.048;4.686;2023-06-22T02:08:07;101784.06;;;18.95;100.00
44140;BME280;29803;51.048;4.686;2023-06-22T02:10:39;101789.22;;;18.83;100.00
44140;BME280;29803;51.048;4.686;2023-06-22T02:13:13;101782.94;;;18.83;100.00
44140;BME280;29803;51.048;4.686;2023-06-22T02:15:46;101790.09;;;18.91;100.00
44140;BME280;29803;51.048;4.686;2023-06-22T02:18:17;101793.22;;;18.87;100.00
44140;BME280;29803;51.048;4.686;2023-06-22T02:20:48;101790.91;;;18.84;100.00
44140;BME280;29803;51.048;4.686;2023-06-22T02:23:19;101781.06;;;18.83;100.00
44140;BME280;29803;51.048;4.686;2023-06-22T02:25:49;101780.03;;;18.84;100.00
44140;BME280;29803;51.048;4.686;2023-06-22T02:28:21;101779.38;;;18.82;100.00
44140;BME280;29803;51.048;4.686;2023-06-22T02:30:51;101789.16;;;18.77;100.00
44140;BME280;29803;51.048;4.686;2023-06-22T02:33:22;101787.47;;;18.76;100.00
44140;BME280;29803;51.048;4.686;2023-06-22T02:35:52;101778.25;;;18.70;100.00
44140;BME280;29803;51.048;4.686;2023-06-22T02:38:23;101764.84;;;18.69;100.00
44140;BME280;29803;51.048;4.686;2023-06-22T02:40:54;101764.34;;;18.58;100.00
44140;BME280;29803;51.048;4.686;2023-06-22T02:43:25;101753.00;;;18.55;100.00
44140;BME280;29803;51.048;4.686;2023-06-22T02:45:55;101756.31;;;18.50;100.00
44140;BME280;29803;51.048;4.686;2023-06-22T02:48:26;101760.84;;;18.43;100.00
44140;BME280;29803;51.048;4.686;2023-06-22T02:50:56;101756.66;;;18.41;100.00
44140;BME280;29803;51.048;4.686;2023-06-22T02:53:27;101743.47;;;18.37;100.00
44140;BME280;29803;51.048;4.686;2023-06-22T02:55:57;101743.84;;;18.34;100.00
44140;BME280;29803;51.048;4.686;2023-06-22T02:58:27;101746.94;;;18.31;100.00
44140;BME280;29803;51.048;4.686;2023-06-22T03:00:58;101739.00;;;18.30;100.00
44140;BME280;29803;51.048;4.686;2023-06-22T03:03:34;101725.81;;;18.27;100.00
44140;BME280;29803;51.048;4.686;2023-06-22T03:06:05;101730.22;;;18.28;100.00
44140;BME280;29803;51.048;4.686;2023-06-22T03:08:35;101729.97;;;18.23;100.00
44140;BME280;29803;51.048;4.686;2023-06-22T03:11:06;101728.09;;;18.23;100.00
44140;BME280;29803;51.048;4.686;2023-06-22T03:13:36;101725.75;;;18.20;100.00
44140;BME280;29803;51.048;4.686;2023-06-22T03:16:06;101730.94;;;18.15;100.00
44140;BME280;29803;51.048;4.686;2023-06-22T03:18:37;101719.69;;;18.18;100.00
44140;BME280;29803;51.048;4.686;2023-06-22T03:21:07;101721.75;;;18.16;100.00
44140;BME280;29803;51.048;4.686;2023-06-22T03:23:38;101718.97;;;18.09;100.00
44140;BME280;29803;51.048;4.686;2023-06-22T03:26:09;101727.69;;;18.05;100.00
44140;BME280;29803;51.048;4.686;2023-06-22T03:28:40;101723.88;;;17.99;100.00
44140;BME280;29803;51.048;4.686;2023-06-22T03:31:11;101720.59;;;18.04;100.00
44140;BME280;29803;51.048;4.686;2023-06-22T03:33:41;101733.59;;;18.08;100.00
44140;BME280;29803;51.048;4.686;2023-06-22T03:36:12;101728.34;;;18.07;100.00
44140;BME280;29803;51.048;4.686;2023-06-22T03:38:42;101732.56;;;18.09;100.00
44140;BME280;29803;51.048;4.686;2023-06-22T03:41:13;101725.28;;;18.17;100.00
44140;BME280;29803;51.048;4.686;2023-06-22T03:43:43;101725.75;;;18.20;100.00
44140;BME280;29803;51.048;4.686;2023-06-22T03:46:13;101720.81;;;18.30;100.00
44140;BME280;29803;51.048;4.686;2023-06-22T03:48:44;101718.34;;;18.35;100.00
44140;BME280;29803;51.048;4.686;2023-06-22T03:51:14;101725.72;;;18.42;100.00
44140;BME280;29803;51.048;4.686;2023-06-22T03:53:45;101722.88;;;18.50;100.00
44140;BME280;29803;51.048;4.686;2023-06-22T03:56:15;101721.03;;;18.57;100.00
44140;BME280;29803;51.048;4.686;2023-06-22T03:58:50;101722.31;;;18.61;100.00
44140;BME280;29803;51.048;4.686;2023-06-22T04:01:21;101726.31;;;18.65;100.00
44140;BME280;29803;51.048;4.686;2023-06-22T04:03:51;101723.25;;;18.68;100.00
44140;BME280;29803;51.048;4.686;2023-06-22T04:06:21;101724.94;;;18.69;100.00
44140;BME280;29803;51.048;4.686;2023-06-22T04:08:52;101720.13;;;18.71;100.00
44140;BME280;29803;51.048;4.686;2023-06-22T04:11:23;101717.34;;;18.64;100.00
44140;BME280;29803;51.048;4.686;2023-06-22T04:13:53;101715.94;;;18.69;100.00
44140;BME280;29803;51.048;4.686;2023-06-22T04:16:24;101726.31;;;18.65;100.00
44140;BME280;29803;51.048;4.686;2023-06-22T04:18:54;101718.25;;;18.72;100.00
44140;BME280;29803;51.048;4.686;2023-06-22T04:21:25;101736.25;;;18.73;100.00
44140;BME280;29803;51.048;4.686;2023-06-22T04:23:55;101732.72;;;18.79;100.00
44140;BME280;29803;51.048;4.686;2023-06-22T04:26:26;101733.78;;;18.78;100.00
44140;BME280;29803;51.048;4.686;2023-06-22T04:28:56;101730.66;;;18.81;100.00
44140;BME280;29803;51.048;4.686;2023-06-22T04:31:26;101734.03;;;18.83;100.00
44140;BME280;29803;51.048;4.686;2023-06-22T04:34:03;101734.66;;;18.85;100.00
44140;BME280;29803;51.048;4.686;2023-06-22T04:36:49;101732.31;;;18.82;100.00
44140;BME280;29803;51.048;4.686;2023-06-22T04:39:19;101734.03;;;18.83;100.00
44140;BME280;29803;51.048;4.686;2023-06-22T04:41:50;101732.13;;;18.83;100.00
44140;BME280;29803;51.048;4.686;2023-06-22T04:44:21;101734.41;;;18.80;100.00
44140;BME280;29803;51.048;4.686;2023-06-22T04:47:10;101728.75;;;18.81;100.00
44140;BME280;29803;51.048;4.686;2023-06-22T04:49:40;101731.72;;;18.86;100.00
44140;BME280;29803;51.048;4.686;2023-06-22T04:52:13;101717.72;;;18.83;100.00
44140;BME280;29803;51.048;4.686;2023-06-22T04:54:50;101726.09;;;18.88;100.00
44140;BME280;29803;51.048;4.686;2023-06-22T04:57:25;101724.00;;;18.90;100.00
44140;BME280;29803;51.048;4.686;2023-06-22T05:00:02;101720.94;;;19.00;100.00
44140;BME280;29803;51.048;4.686;2023-06-22T05:02:44;101722.84;;;19.06;100.00
44140;BME280;29803;51.048;4.686;2023-06-22T05:05:15;101728.28;;;19.06;100.00
44140;BME280;29803;51.048;4.686;2023-06-22T05:07:46;101727.09;;;19.15;100.00
44140;BME280;29803;51.048;4.686;2023-06-22T05:10:20;101735.47;;;19.20;100.00
44140;BME280;29803;51.048;4.686;2023-06-22T05:12:51;101733.00;;;19.25;100.00
44140;BME280;29803;51.048;4.686;2023-06-22T05:15:22;101734.88;;;19.25;100.00
44140;BME280;29803;51.048;4.686;2023-06-22T05:17:56;101735.97;;;19.37;100.00
44140;BME280;29803;51.048;4.686;2023-06-22T05:20:28;101748.97;;;19.41;100.00
44140;BME280;29803;51.048;4.686;2023-06-22T05:22:59;101753.78;;;19.39;100.00
44140;BME280;29803;51.048;4.686;2023-06-22T05:25:29;101745.41;;;19.48;100.00
44140;BME280;29803;51.048;4.686;2023-06-22T05:28:00;101754.47;;;19.55;100.00
44140;BME280;29803;51.048;4.686;2023-06-22T05:30:31;101753.69;;;19.61;100.00
44140;BME280;29803;51.048;4.686;2023-06-22T05:33:01;101756.41;;;19.67;100.00
44140;BME280;29803;51.048;4.686;2023-06-22T05:35:32;101755.81;;;19.72;100.00
44140;BME280;29803;51.048;4.686;2023-06-22T05:38:02;101755.81;;;19.72;100.00
44140;BME280;29803;51.048;4.686;2023-06-22T05:40:33;101753.75;;;19.81;100.00
44140;BME280;29803;51.048;4.686;2023-06-22T05:43:19;101755.63;;;19.87;100.00
44140;BME280;29803;51.048;4.686;2023-06-22T05:45:50;101755.63;;;19.80;100.00
44140;BME280;29803;51.048;4.686;2023-06-22T05:48:20;101756.69;;;19.79;100.00
44140;BME280;29803;51.048;4.686;2023-06-22T05:50:51;101760.44;;;19.78;100.00
44140;BME280;29803;51.048;4.686;2023-06-22T05:53:21;101758.75;;;19.77;100.00
44140;BME280;29803;51.048;4.686;2023-06-22T05:55:52;101762.13;;;19.79;100.00
44140;BME280;29803;51.048;4.686;2023-06-22T05:58:23;101754.34;;;19.76;100.00
44140;BME280;29803;51.048;4.686;2023-06-22T06:00:53;101754.78;;;19.73;100.00
44140;BME280;29803;51.048;4.686;2023-06-22T06:03:24;101751.63;;;19.63;100.00
44140;BME280;29803;51.048;4.686;2023-06-22T06:05:54;101756.63;;;19.66;100.00
44140;BME280;29803;51.048;4.686;2023-06-22T06:08:28;101749.75;;;19.70;100.00
44140;BME280;29803;51.048;4.686;2023-06-22T06:11:00;101742.63;;;19.76;100.00
44140;BME280;29803;51.048;4.686;2023-06-22T06:13:30;101738.66;;;19.78;100.00
44140;BME280;29803;51.048;4.686;2023-06-22T06:16:01;101732.38;;;19.78;100.00
44140;BME280;29803;51.048;4.686;2023-06-22T06:18:31;101733.81;;;19.67;100.00
44140;BME280;29803;51.048;4.686;2023-06-22T06:21:02;101739.69;;;19.71;100.00
44140;BME280;29803;51.048;4.686;2023-06-22T06:23:32;101733.63;;;19.75;100.00
44140;BME280;29803;51.048;4.686;2023-06-22T06:26:03;101732.19;;;19.79;100.00
44140;BME280;29803;51.048;4.686;2023-06-22T06:28:37;101729.47;;;19.86;100.00
44140;BME280;29803;51.048;4.686;2023-06-22T06:31:07;101716.91;;;19.91;100.00
44140;BME280;29803;51.048;4.686;2023-06-22T06:33:39;101712.31;;;19.99;100.00
44140;BME280;29803;51.048;4.686;2023-06-22T06:36:10;101714.41;;;20.10;100.00
44140;BME280;29803;51.048;4.686;2023-06-22T06:38:41;101702.88;;;20.21;100.00
44140;BME280;29803;51.048;4.686;2023-06-22T06:41:11;101701.41;;;20.32;100.00
44140;BME280;29803;51.048;4.686;2023-06-22T06:43:42;101694.09;;;20.46;100.00
44140;BME280;29803;51.048;4.686;2023-06-22T06:46:13;101687.81;;;20.58;100.00
44140;BME280;29803;51.048;4.686;2023-06-22T06:48:44;101685.88;;;20.72;100.00
44140;BME280;29803;51.048;4.686;2023-06-22T06:51:14;101680.41;;;20.85;100.00
44140;BME280;29803;51.048;4.686;2023-06-22T06:53:44;101685.66;;;20.93;100.00
44140;BME280;29803;51.048;4.686;2023-06-22T06:56:16;101694.22;;;21.04;100.00
44140;BME280;29803;51.048;4.686;2023-06-22T06:58:49;101686.00;;;21.10;100.00
44140;BME280;29803;51.048;4.686;2023-06-22T07:01:20;101685.53;;;21.20;100.00
44140;BME280;29803;51.048;4.686;2023-06-22T07:03:50;101676.47;;;21.26;100.00
44140;BME280;29803;51.048;4.686;2023-06-22T07:06:21;101671.63;;;21.28;100.00
44140;BME280;29803;51.048;4.686;2023-06-22T07:08:51;101665.53;;;21.39;100.00
44140;BME280;29803;51.048;4.686;2023-06-22T07:11:22;101653.75;;;21.45;100.00
44140;BME280;29803;51.048;4.686;2023-06-22T07:13:52;101656.66;;;21.51;100.00
44140;BME280;29803;51.048;4.686;2023-06-22T07:16:22;101644.50;;;21.46;100.00
44140;BME280;29803;51.048;4.686;2023-06-22T07:18:55;101644.69;;;21.52;100.00
44140;BME280;29803;51.048;4.686;2023-06-22T07:21:26;101639.84;;;21.54;100.00
44140;BME280;29803;51.048;4.686;2023-06-22T07:23:56;101631.03;;;21.52;100.00
44140;BME280;29803;51.048;4.686;2023-06-22T07:26:27;101622.41;;;21.55;100.00
44140;BME280;29803;51.048;4.686;2023-06-22T07:28:57;101621.94;;;21.58;100.00
44140;BME280;29803;51.048;4.686;2023-06-22T07:31:28;101613.28;;;21.67;100.00
44140;BME280;29803;51.048;4.686;2023-06-22T07:33:58;101607.56;;;21.76;100.00
44140;BME280;29803;51.048;4.686;2023-06-22T07:36:29;101605.16;;;21.86;100.00
44140;BME280;29803;51.048;4.686;2023-06-22T07:39:00;101606.38;;;21.90;100.00
44140;BME280;29803;51.048;4.686;2023-06-22T07:41:31;101591.28;;;21.87;100.00
44140;BME280;29803;51.048;4.686;2023-06-22T07:44:02;101591.28;;;21.87;100.00
44140;BME280;29803;51.048;4.686;2023-06-22T07:46:33;101584.31;;;21.91;100.00
44140;BME280;29803;51.048;4.686;2023-06-22T07:49:04;101595.06;;;21.86;100.00
44140;BME280;29803;51.048;4.686;2023-06-22T07:51:35;101592.34;;;21.86;100.00
44140;BME280;29803;51.048;4.686;2023-06-22T07:54:05;101592.75;;;21.83;100.00
44140;BME280;29803;51.048;4.686;2023-06-22T07:56:37;101582.31;;;21.80;100.00
44140;BME280;29803;51.048;4.686;2023-06-22T07:59:07;101597.22;;;21.78;100.00
44140;BME280;29803;51.048;4.686;2023-06-22T08:01:38;101601.84;;;21.77;100.00
44140;BME280;29803;51.048;4.686;2023-06-22T08:04:08;101606.88;;;21.80;100.00
44140;BME280;29803;51.048;4.686;2023-06-22T08:06:40;101594.22;;;21.86;100.00
44140;BME280;29803;51.048;4.686;2023-06-22T08:09:14;101598.47;;;21.82;100.00
44140;BME280;29803;51.048;4.686;2023-06-22T08:11:44;101586.53;;;21.76;100.00
44140;BME280;29803;51.048;4.686;2023-06-22T08:14:15;101586.38;;;21.71;100.00
44140;BME280;29803;51.048;4.686;2023-06-22T08:16:45;101589.00;;;21.84;100.00
44140;BME280;29803;51.048;4.686;2023-06-22T08:19:16;101586.47;;;21.83;100.00
44140;BME280;29803;51.048;4.686;2023-06-22T08:21:47;101584.19;;;21.80;100.00
44140;BME280;29803;51.048;4.686;2023-06-22T08:24:17;101586.53;;;21.76;100.00
44140;BME280;29803;51.048;4.686;2023-06-22T08:26:51;101595.34;;;21.78;100.00
44140;BME280;29803;51.048;4.686;2023-06-22T08:29:22;101593.22;;;21.80;100.00
44140;BME280;29803;51.048;4.686;2023-06-22T08:31:52;101585.69;;;21.76;100.00
44140;BME280;29803;51.048;4.686;2023-06-22T08:34:23;101584.06;;;21.68;100.00
44140;BME280;29803;51.048;4.686;2023-06-22T08:36:55;101591.44;;;21.67;100.00
44140;BME280;29803;51.048;4.686;2023-06-22T08:39:25;101584.72;;;21.63;100.00
44140;BME280;29803;51.048;4.686;2023-06-22T08:41:56;101591.91;;;21.58;100.00
44140;BME280;29803;51.048;4.686;2023-06-22T08:44:26;101583.34;;;21.54;100.00
44140;BME280;29803;51.048;4.686;2023-06-22T08:46:57;101580.63;;;21.54;100.00
44140;BME280;29803;51.048;4.686;2023-06-22T08:49:27;101574.75;;;21.51;100.00
44140;BME280;29803;51.048;4.686;2023-06-22T08:51:58;101567.84;;;21.48;100.00
44140;BME280;29803;51.048;4.686;2023-06-22T08:54:28;101569.38;;;21.37;100.00
44140;BME280;29803;51.048;4.686;2023-06-22T08:56:59;101562.44;;;21.41;100.00
44140;BME280;29803;51.048;4.686;2023-06-22T08:59:29;101563.50;;;21.40;100.00
44140;BME280;29803;51.048;4.686;2023-06-22T09:02:00;101560.53;;;21.42;100.00
44140;BME280;29803;51.048;4.686;2023-06-22T09:04:30;101565.75;;;21.43;100.00
44140;BME280;29803;51.048;4.686;2023-06-22T09:07:04;101569.72;;;21.48;100.00
44140;BME280;29803;51.048;4.686;2023-06-22T09:09:35;101570.97;;;21.52;100.00
44140;BME280;29803;51.048;4.686;2023-06-22T09:12:06;101571.97;;;21.57;100.00
44140;BME280;29803;51.048;4.686;2023-06-22T09:14:38;101574.09;;;21.55;100.00
44140;BME280;29803;51.048;4.686;2023-06-22T09:17:08;101584.22;;;21.48;100.00
44140;BME280;29803;51.048;4.686;2023-06-22T09:19:39;101590.34;;;21.43;100.00
44140;BME280;29803;51.048;4.686;2023-06-22T09:22:10;101590.16;;;21.38;100.00
44140;BME280;29803;51.048;4.686;2023-06-22T09:24:40;101590.84;;;21.34;100.00
44140;BME280;29803;51.048;4.686;2023-06-22T09:27:11;101603.03;;;21.31;100.00
44140;BME280;29803;51.048;4.686;2023-06-22T09:29:41;101603.63;;;21.33;100.00
44140;BME280;29803;51.048;4.686;2023-06-22T09:32:12;101609.94;;;21.34;100.00
44140;BME280;29803;51.048;4.686;2023-06-22T09:34:43;101611.38;;;21.36;100.00
44140;BME280;29803;51.048;4.686;2023-06-22T09:37:14;101619.75;;;21.41;100.00
44140;BME280;29803;51.048;4.686;2023-06-22T09:39:44;101616.38;;;21.46;100.00
44140;BME280;29803;51.048;4.686;2023-06-22T09:42:15;101625.63;;;21.45;100.00
44140;BME280;29803;51.048;4.686;2023-06-22T09:44:47;101624.97;;;21.50;100.00
44140;BME280;29803;51.048;4.686;2023-06-22T09:47:18;101628.13;;;21.46;100.00
44140;BME280;29803;51.048;4.686;2023-06-22T09:49:48;101643.13;;;21.31;100.00
44140;BME280;29803;51.048;4.686;2023-06-22T09:52:19;101653.63;;;21.20;100.00
44140;BME280;29803;51.048;4.686;2023-06-22T09:54:49;101658.69;;;21.17;100.00
44140;BME280;29803;51.048;4.686;2023-06-22T09:57:19;101674.06;;;21.05;100.00
44140;BME280;29803;51.048;4.686;2023-06-22T09:59:50;101675.16;;;20.90;100.00
44140;BME280;29803;51.048;4.686;2023-06-22T10:02:20;101690.50;;;20.72;100.00
44140;BME280;29803;51.048;4.686;2023-06-22T10:04:52;101690.56;;;20.58;100.00
44140;BME280;29803;51.048;4.686;2023-06-22T10:07:23;101704.38;;;20.43;100.00
44140;BME280;29803;51.048;4.686;2023-06-22T10:09:53;101714.00;;;20.39;100.00
44140;BME280;29803;51.048;4.686;2023-06-22T10:12:23;101708.56;;;20.26;100.00
44140;BME280;29803;51.048;4.686;2023-06-22T10:14:54;101713.97;;;20.13;100.00
44140;BME280;29803;51.048;4.686;2023-06-22T10:17:24;101720.06;;;19.88;100.00
44140;BME280;29803;51.048;4.686;2023-06-22T10:19:55;101718.13;;;19.76;100.00
44140;BME280;29803;51.048;4.686;2023-06-22T10:22:25;101717.50;;;19.74;100.00
44140;BME280;29803;51.048;4.686;2023-06-22T10:24:56;101709.34;;;19.74;100.00
44140;BME280;29803;51.048;4.686;2023-06-22T10:27:26;101691.91;;;19.61;100.00
44140;BME280;29803;51.048;4.686;2023-06-22T10:29:57;101683.72;;;19.55;100.00
44140;BME280;29803;51.048;4.686;2023-06-22T10:32:28;101677.38;;;19.41;100.00
44140;BME280;29803;51.048;4.686;2023-06-22T10:34:58;101682.16;;;19.32;100.00
44140;BME280;29803;51.048;4.686;2023-06-22T10:37:29;101691.13;;;19.26;100.00
44140;BME280;29803;51.048;4.686;2023-06-22T10:39:59;101694.88;;;19.19;100.00
44140;BME280;29803;51.048;4.686;2023-06-22T10:42:30;101697.38;;;19.13;100.00
44140;BME280;29803;51.048;4.686;2023-06-22T10:45:00;101691.13;;;19.20;100.00
44140;BME280;29803;51.048;4.686;2023-06-22T10:47:31;101676.88;;;19.18;100.00
44140;BME280;29803;51.048;4.686;2023-06-22T10:50:02;101667.47;;;19.13;100.00
44140;BME280;29803;51.048;4.686;2023-06-22T10:52:33;101656.16;;;19.17;100.00
44140;BME280;29803;51.048;4.686;2023-06-22T10:55:04;101645.88;;;19.12;100.00
44140;BME280;29803;51.048;4.686;2023-06-22T10:57:34;101646.53;;;19.14;100.00
44140;BME280;29803;51.048;4.686;2023-06-22T11:00:07;101635.84;;;19.12;100.00
44140;BME280;29803;51.048;4.686;2023-06-22T11:02:38;101630.84;;;19.16;100.00
44140;BME280;29803;51.048;4.686;2023-06-22T11:05:09;101626.88;;;19.19;100.00
44140;BME280;29803;51.048;4.686;2023-06-22T11:07:58;101620.22;;;19.28;100.00
44140;BME280;29803;51.048;4.686;2023-06-22T11:10:29;101610.84;;;19.44;100.00
44140;BME280;29803;51.048;4.686;2023-06-22T11:12:59;101603.28;;;19.46;100.00
44140;BME280;29803;51.048;4.686;2023-06-22T11:15:30;101605.19;;;19.45;100.00
44140;BME280;29803;51.048;4.686;2023-06-22T11:18:00;101593.69;;;19.50;100.00
44140;BME280;29803;51.048;4.686;2023-06-22T11:20:31;101595.34;;;19.57;100.00
44140;BME280;29803;51.048;4.686;2023-06-22T11:23:05;101583.25;;;19.60;100.00
44140;BME280;29803;51.048;4.686;2023-06-22T11:25:36;101583.91;;;19.69;100.00
44140;BME280;29803;51.048;4.686;2023-06-22T11:28:08;101565.25;;;19.72;100.00
44140;BME280;29803;51.048;4.686;2023-06-22T11:30:38;101570.28;;;19.82;100.00
44140;BME280;29803;51.048;4.686;2023-06-22T11:33:09;101564.19;;;19.86;100.00
44140;BME280;29803;51.048;4.686;2023-06-22T11:35:39;101556.66;;;19.95;100.00
44140;BME280;29803;51.048;4.686;2023-06-22T11:38:10;101547.00;;;19.92;100.00
44140;BME280;29803;51.048;4.686;2023-06-22T11:40:40;101544.72;;;19.89;100.00
44140;BME280;29803;51.048;4.686;2023-06-22T11:43:11;101542.22;;;19.95;100.00
44140;BME280;29803;51.048;4.686;2023-06-22T11:45:41;101537.19;;;19.98;100.00
44140;BME280;29803;51.048;4.686;2023-06-22T11:48:12;101534.22;;;20.06;100.00
44140;BME280;29803;51.048;4.686;2023-06-22T11:50:42;101536.75;;;20.01;100.00
44140;BME280;29803;51.048;4.686;2023-06-22T11:53:13;101542.22;;;19.95;100.00
44140;BME280;29803;51.048;4.686;2023-06-22T11:55:47;101547.03;;;19.99;100.00
44140;BME280;29803;51.048;4.686;2023-06-22T11:58:17;101549.31;;;19.96;100.00
44140;BME280;29803;51.048;4.686;2023-06-22T12:00:48;101551.84;;;19.97;100.00
44140;BME280;29803;51.048;4.686;2023-06-22T12:03:19;101550.16;;;19.96;100.00
44140;BME280;29803;51.048;4.686;2023-06-22T12:05:51;101546.38;;;19.97;100.00
44140;BME280;29803;51.048;4.686;2023-06-22T12:08:22;101545.16;;;19.93;100.00
44140;BME280;29803;51.048;4.686;2023-06-22T12:10:53;101543.88;;;19.82;100.00
44140;BME280;29803;51.048;4.686;2023-06-22T12:13:24;101546.59;;;19.82;100.00
44140;BME280;29803;51.048;4.686;2023-06-22T12:15:54;101523.81;;;19.83;100.00
44140;BME280;29803;51.048;4.686;2023-06-22T12:18:25;101531.13;;;19.76;100.00
44140;BME280;29803;51.048;4.686;2023-06-22T12:20:55;101534.47;;;19.72;100.00
44140;BME280;29803;51.048;4.686;2023-06-22T12:23:26;101529.66;;;19.60;100.00
44140;BME280;29803;51.048;4.686;2023-06-22T12:25:56;101531.56;;;19.60;100.00
44140;BME280;29803;51.048;4.686;2023-06-22T12:28:27;101533.81;;;19.56;100.00
44140;BME280;29803;51.048;4.686;2023-06-22T12:30:57;101529.00;;;19.52;100.00
44140;BME280;29803;51.048;4.686;2023-06-22T12:33:28;101524.81;;;19.56;100.00
44140;BME280;29803;51.048;4.686;2023-06-22T12:36:00;101520.81;;;19.52;100.00
44140;BME280;29803;51.048;4.686;2023-06-22T12:38:31;101518.09;;;19.52;100.00
44140;BME280;29803;51.048;4.686;2023-06-22T12:41:02;101510.56;;;19.47;100.00
44140;BME280;29803;51.048;4.686;2023-06-22T12:43:32;101502.19;;;19.42;100.00
44140;BME280;29803;51.048;4.686;2023-06-22T12:46:03;101498.66;;;19.48;100.00
44140;BME280;29803;51.048;4.686;2023-06-22T12:48:33;101500.53;;;19.41;100.00
44140;BME280;29803;51.048;4.686;2023-06-22T12:51:04;101493.00;;;19.43;100.00
44140;BME280;29803;51.048;4.686;2023-06-22T12:53:34;101494.25;;;19.40;100.00
44140;BME280;29803;51.048;4.686;2023-06-22T12:56:05;101492.59;;;19.39;100.00
44140;BME280;29803;51.048;4.686;2023-06-22T12:58:35;101502.41;;;19.34;100.00
44140;BME280;29803;51.048;4.686;2023-06-22T13:01:06;101501.56;;;19.27;100.00
44140;BME280;29803;51.048;4.686;2023-06-22T13:03:36;101490.50;;;19.28;100.00